sensor_id;sensor_type;location;lat;lon;timestamp;P1;durP1;ratioP1;P2;durP2;ratioP2
64879;SDS011;51374;45.124;36.712;2022-07-01T00:00:37;1.13;;;0.45;;
64879;SDS011;51374;45.124;36.712;2022-07-01T00:03:04;0.70;;;0.52;;
64879;SDS011;51374;45.124;36.712;2022-07-01T00:05:30;0.30;;;0.22;;
64879;SDS011;51374;45.124;36.712;2022-07-01T00:07:56;1.00;;;0.77;;
64879;SDS011;51374;45.124;36.712;2022-07-01T00:10:22;1.33;;;0.50;;
64879;SDS011;51374;45.124;36.712;2022-07-01T00:12:48;1.45;;;0.63;;
64879;SDS011;51374;45.124;36.712;2022-07-01T00:15:14;0.65;;;0.50;;
64879;SDS011;51374;45.124;36.712;2022-07-01T00:17:40;0.70;;;0.70;;
64879;SDS011;51374;45.124;36.712;2022-07-01T00:20:06;0.77;;;0.40;;
64879;SDS011;51374;45.124;36.712;2022-07-01T00:22:35;0.40;;;0.40;;
64879;SDS011;51374;45.124;36.712;2022-07-01T00:25:02;0.20;;;0.20;;
64879;SDS011;51374;45.124;36.712;2022-07-01T00:27:28;0.20;;;0.20;;
64879;SDS011;51374;45.124;36.712;2022-07-01T00:29:54;0.30;;;0.30;;
64879;SDS011;51374;45.124;36.712;2022-07-01T00:32:20;0.20;;;0.20;;
64879;SDS011;51374;45.124;36.712;2022-07-01T00:34:46;0.75;;;0.47;;
64879;SDS011;51374;45.124;36.712;2022-07-01T00:37:12;1.20;;;0.43;;
64879;SDS011;51374;45.124;36.712;2022-07-01T00:39:38;0.52;;;0.47;;
64879;SDS011;51374;45.124;36.712;2022-07-01T00:42:04;1.10;;;0.57;;
64879;SDS011;51374;45.124;36.712;2022-07-01T00:44:31;2.08;;;0.50;;
64879;SDS011;51374;45.124;36.712;2022-07-01T00:46:58;0.35;;;0.35;;
64879;SDS011;51374;45.124;36.712;2022-07-01T00:49:27;0.75;;;0.45;;
64879;SDS011;51374;45.124;36.712;2022-07-01T00:51:54;0.30;;;0.30;;
64879;SDS011;51374;45.124;36.712;2022-07-01T00:54:21;0.70;;;0.70;;
64879;SDS011;51374;45.124;36.712;2022-07-01T00:56:47;0.57;;;0.57;;
64879;SDS011;51374;45.124;36.712;2022-07-01T00:59:14;0.30;;;0.30;;
64879;SDS011;51374;45.124;36.712;2022-07-01T01:01:40;0.20;;;0.20;;
64879;SDS011;51374;45.124;36.712;2022-07-01T01:04:07;0.35;;;0.20;;
64879;SDS011;51374;45.124;36.712;2022-07-01T01:06:33;1.25;;;0.80;;
64879;SDS011;51374;45.124;36.712;2022-07-01T01:08:59;0.40;;;0.40;;
64879;SDS011;51374;45.124;36.712;2022-07-01T01:11:25;0.63;;;0.63;;
64879;SDS011;51374;45.124;36.712;2022-07-01T01:13:52;0.68;;;0.68;;
64879;SDS011;51374;45.124;36.712;2022-07-01T01:16:19;0.65;;;0.47;;
64879;SDS011;51374;45.124;36.712;2022-07-01T01:18:45;0.95;;;0.65;;
64879;SDS011;51374;45.124;36.712;2022-07-01T01:21:12;1.38;;;0.90;;
64879;SDS011;51374;45.124;36.712;2022-07-01T01:23:38;0.63;;;0.45;;
64879;SDS011;51374;45.124;36.712;2022-07-01T01:26:14;0.30;;;0.30;;
64879;SDS011;51374;45.124;36.712;2022-07-01T01:28:41;0.88;;;0.30;;
64879;SDS011;51374;45.124;36.712;2022-07-01T01:31:07;0.45;;;0.45;;
64879;SDS011;51374;45.124;36.712;2022-07-01T01:33:33;0.45;;;0.45;;
64879;SDS011;51374;45.124;36.712;2022-07-01T01:35:59;0.32;;;0.22;;
64879;SDS011;51374;45.124;36.712;2022-07-01T01:38:25;1.58;;;0.22;;
64879;SDS011;51374;45.124;36.712;2022-07-01T01:40:51;0.90;;;0.73;;
64879;SDS011;51374;45.124;36.712;2022-07-01T01:43:17;0.75;;;0.47;;
64879;SDS011;51374;45.124;36.712;2022-07-01T01:45:43;0.47;;;0.47;;
64879;SDS011;51374;45.124;36.712;2022-07-01T01:48:09;0.45;;;0.45;;
64879;SDS011;51374;45.124;36.712;2022-07-01T01:50:35;0.30;;;0.30;;
64879;SDS011;51374;45.124;36.712;2022-07-01T01:53:01;0.32;;;0.32;;
64879;SDS011;51374;45.124;36.712;2022-07-01T01:55:27;0.30;;;0.30;;
64879;SDS011;51374;45.124;36.712;2022-07-01T01:57:53;0.43;;;0.40;;
64879;SDS011;51374;45.124;36.712;2022-07-01T02:00:19;0.60;;;0.60;;
64879;SDS011;51374;45.124;36.712;2022-07-01T02:02:45;1.25;;;0.30;;
64879;SDS011;51374;45.124;36.712;2022-07-01T02:05:11;0.88;;;0.50;;
64879;SDS011;51374;45.124;36.712;2022-07-01T02:07:39;0.65;;;0.65;;
64879;SDS011;51374;45.124;36.712;2022-07-01T02:10:05;0.98;;;0.60;;
64879;SDS011;51374;45.124;36.712;2022-07-01T02:12:32;0.73;;;0.73;;
64879;SDS011;51374;45.124;36.712;2022-07-01T02:14:58;0.20;;;0.20;;
64879;SDS011;51374;45.124;36.712;2022-07-01T02:17:24;0.85;;;0.43;;
64879;SDS011;51374;45.124;36.712;2022-07-01T02:19:51;0.20;;;0.20;;
64879;SDS011;51374;45.124;36.712;2022-07-01T02:22:17;0.10;;;0.10;;
64879;SDS011;51374;45.124;36.712;2022-07-01T02:24:43;0.20;;;0.20;;
64879;SDS011;51374;45.124;36.712;2022-07-01T02:27:10;1.77;;;0.52;;
64879;SDS011;51374;45.124;36.712;2022-07-01T02:29:37;0.10;;;0.10;;
64879;SDS011;51374;45.124;36.712;2022-07-01T02:32:07;0.47;;;0.47;;
64879;SDS011;51374;45.124;36.712;2022-07-01T02:34:33;5.78;;;0.65;;
64879;SDS011;51374;45.124;36.712;2022-07-01T02:36:59;0.30;;;0.20;;
64879;SDS011;51374;45.124;36.712;2022-07-01T02:39:25;0.63;;;0.32;;
64879;SDS011;51374;45.124;36.712;2022-07-01T02:41:51;0.30;;;0.30;;
64879;SDS011;51374;45.124;36.712;2022-07-01T02:44:35;2.22;;;1.38;;
64879;SDS011;51374;45.124;36.712;2022-07-01T02:47:01;0.77;;;0.63;;
64879;SDS011;51374;45.124;36.712;2022-07-01T02:49:28;0.43;;;0.43;;
64879;SDS011;51374;45.124;36.712;2022-07-01T02:51:53;0.70;;;0.70;;
64879;SDS011;51374;45.124;36.712;2022-07-01T02:54:19;0.43;;;0.43;;
64879;SDS011;51374;45.124;36.712;2022-07-01T02:56:45;0.57;;;0.50;;
64879;SDS011;51374;45.124;36.712;2022-07-01T02:59:11;0.28;;;0.25;;
64879;SDS011;51374;45.124;36.712;2022-07-01T03:01:37;0.95;;;0.95;;
64879;SDS011;51374;45.124;36.712;2022-07-01T03:04:03;0.22;;;0.22;;
64879;SDS011;51374;45.124;36.712;2022-07-01T03:06:29;0.30;;;0.30;;
64879;SDS011;51374;45.124;36.712;2022-07-01T03:08:55;0.32;;;0.32;;
64879;SDS011;51374;45.124;36.712;2022-07-01T03:11:23;0.10;;;0.10;;
64879;SDS011;51374;45.124;36.712;2022-07-01T03:13:49;1.30;;;0.60;;
64879;SDS011;51374;45.124;36.712;2022-07-01T03:16:15;0.73;;;0.70;;
64879;SDS011;51374;45.124;36.712;2022-07-01T03:18:41;0.40;;;0.40;;
64879;SDS011;51374;45.124;36.712;2022-07-01T03:21:07;3.42;;;0.70;;
64879;SDS011;51374;45.124;36.712;2022-07-01T03:23:33;0.68;;;0.68;;
64879;SDS011;51374;45.124;36.712;2022-07-01T03:25:59;0.30;;;0.30;;
64879;SDS011;51374;45.124;36.712;2022-07-01T03:28:24;1.15;;;0.57;;
64879;SDS011;51374;45.124;36.712;2022-07-01T03:30:50;0.50;;;0.50;;
64879;SDS011;51374;45.124;36.712;2022-07-01T03:33:16;0.40;;;0.40;;
64879;SDS011;51374;45.124;36.712;2022-07-01T03:35:42;0.60;;;0.52;;
64879;SDS011;51374;45.124;36.712;2022-07-01T03:38:11;0.90;;;0.63;;
64879;SDS011;51374;45.124;36.712;2022-07-01T03:40:38;0.75;;;0.55;;
64879;SDS011;51374;45.124;36.712;2022-07-01T03:43:04;1.08;;;0.55;;
64879;SDS011;51374;45.124;36.712;2022-07-01T03:45:30;0.45;;;0.40;;
64879;SDS011;51374;45.124;36.712;2022-07-01T03:47:57;1.25;;;1.17;;
64879;SDS011;51374;45.124;36.712;2022-07-01T03:50:24;0.43;;;0.32;;
64879;SDS011;51374;45.124;36.712;2022-07-01T03:52:50;0.47;;;0.47;;
64879;SDS011;51374;45.124;36.712;2022-07-01T03:55:36;0.20;;;0.20;;
64879;SDS011;51374;45.124;36.712;2022-07-01T03:58:02;0.30;;;0.30;;
64879;SDS011;51374;45.124;36.712;2022-07-01T04:00:28;0.28;;;0.28;;
64879;SDS011;51374;45.124;36.712;2022-07-01T04:02:58;0.50;;;0.50;;
64879;SDS011;51374;45.124;36.712;2022-07-01T04:05:24;0.65;;;0.65;;
64879;SDS011;51374;45.124;36.712;2022-07-01T04:07:50;0.77;;;0.60;;
64879;SDS011;51374;45.124;36.712;2022-07-01T04:10:16;5.95;;;1.55;;
64879;SDS011;51374;45.124;36.712;2022-07-01T04:12:42;0.40;;;0.40;;
64879;SDS011;51374;45.124;36.712;2022-07-01T04:15:08;0.98;;;0.40;;
64879;SDS011;51374;45.124;36.712;2022-07-01T04:17:35;0.85;;;0.60;;
64879;SDS011;51374;45.124;36.712;2022-07-01T04:20:01;0.35;;;0.35;;
64879;SDS011;51374;45.124;36.712;2022-07-01T04:22:27;0.20;;;0.20;;
64879;SDS011;51374;45.124;36.712;2022-07-01T04:25:01;0.30;;;0.30;;
64879;SDS011;51374;45.124;36.712;2022-07-01T04:27:32;0.93;;;0.52;;
64879;SDS011;51374;45.124;36.712;2022-07-01T04:29:59;2.63;;;0.50;;
64879;SDS011;51374;45.124;36.712;2022-07-01T04:32:27;0.25;;;0.25;;
64879;SDS011;51374;45.124;36.712;2022-07-01T04:34:54;1.85;;;0.65;;
64879;SDS011;51374;45.124;36.712;2022-07-01T04:37:19;0.88;;;0.63;;
64879;SDS011;51374;45.124;36.712;2022-07-01T04:39:45;0.52;;;0.52;;
64879;SDS011;51374;45.124;36.712;2022-07-01T04:42:11;5.57;;;0.85;;
64879;SDS011;51374;45.124;36.712;2022-07-01T04:44:39;1.00;;;0.60;;
64879;SDS011;51374;45.124;36.712;2022-07-01T04:47:05;0.68;;;0.40;;
64879;SDS011;51374;45.124;36.712;2022-07-01T04:49:31;0.47;;;0.40;;
64879;SDS011;51374;45.124;36.712;2022-07-01T04:51:57;0.50;;;0.50;;
64879;SDS011;51374;45.124;36.712;2022-07-01T04:54:24;0.77;;;0.77;;
64879;SDS011;51374;45.124;36.712;2022-07-01T04:56:51;0.20;;;0.20;;
64879;SDS011;51374;45.124;36.712;2022-07-01T04:59:17;0.40;;;0.40;;
64879;SDS011;51374;45.124;36.712;2022-07-01T05:01:44;0.50;;;0.50;;
64879;SDS011;51374;45.124;36.712;2022-07-01T05:04:14;1.15;;;0.80;;
64879;SDS011;51374;45.124;36.712;2022-07-01T05:06:40;0.52;;;0.43;;
64879;SDS011;51374;45.124;36.712;2022-07-01T05:09:06;5.47;;;0.45;;
64879;SDS011;51374;45.124;36.712;2022-07-01T05:11:32;0.40;;;0.40;;
64879;SDS011;51374;45.124;36.712;2022-07-01T05:13:59;0.32;;;0.32;;
64879;SDS011;51374;45.124;36.712;2022-07-01T05:16:25;0.52;;;0.52;;
64879;SDS011;51374;45.124;36.712;2022-07-01T05:18:50;1.85;;;0.20;;
64879;SDS011;51374;45.124;36.712;2022-07-01T05:21:35;0.20;;;0.20;;
64879;SDS011;51374;45.124;36.712;2022-07-01T05:24:19;0.57;;;0.52;;
64879;SDS011;51374;45.124;36.712;2022-07-01T05:26:45;0.30;;;0.30;;
64879;SDS011;51374;45.124;36.712;2022-07-01T05:29:11;0.38;;;0.38;;
64879;SDS011;51374;45.124;36.712;2022-07-01T05:31:38;0.30;;;0.30;;
64879;SDS011;51374;45.124;36.712;2022-07-01T05:34:04;0.70;;;0.57;;
64879;SDS011;51374;45.124;36.712;2022-07-01T05:36:30;0.35;;;0.35;;
64879;SDS011;51374;45.124;36.712;2022-07-01T05:38:56;0.60;;;0.60;;
64879;SDS011;51374;45.124;36.712;2022-07-01T05:41:22;1.60;;;0.43;;
64879;SDS011;51374;45.124;36.712;2022-07-01T05:43:48;0.40;;;0.40;;
64879;SDS011;51374;45.124;36.712;2022-07-01T05:46:14;0.38;;;0.30;;
64879;SDS011;51374;45.124;36.712;2022-07-01T05:48:40;0.38;;;0.35;;
64879;SDS011;51374;45.124;36.712;2022-07-01T05:51:06;0.20;;;0.20;;
64879;SDS011;51374;45.124;36.712;2022-07-01T05:53:31;0.65;;;0.57;;
64879;SDS011;51374;45.124;36.712;2022-07-01T05:55:57;0.32;;;0.32;;
64879;SDS011;51374;45.124;36.712;2022-07-01T05:58:24;0.45;;;0.45;;
64879;SDS011;51374;45.124;36.712;2022-07-01T06:00:50;0.40;;;0.40;;
64879;SDS011;51374;45.124;36.712;2022-07-01T06:03:16;0.28;;;0.28;;
64879;SDS011;51374;45.124;36.712;2022-07-01T06:05:42;0.47;;;0.30;;
64879;SDS011;51374;45.124;36.712;2022-07-01T06:08:08;1.17;;;0.63;;
64879;SDS011;51374;45.124;36.712;2022-07-01T06:10:35;0.80;;;0.65;;
64879;SDS011;51374;45.124;36.712;2022-07-01T06:13:01;0.70;;;0.50;;
64879;SDS011;51374;45.124;36.712;2022-07-01T06:15:28;0.32;;;0.32;;
64879;SDS011;51374;45.124;36.712;2022-07-01T06:17:54;0.57;;;0.40;;
64879;SDS011;51374;45.124;36.712;2022-07-01T06:20:20;0.52;;;0.50;;
64879;SDS011;51374;45.124;36.712;2022-07-01T06:22:46;0.30;;;0.30;;
64879;SDS011;51374;45.124;36.712;2022-07-01T06:25:12;0.75;;;0.40;;
64879;SDS011;51374;45.124;36.712;2022-07-01T06:27:39;0.30;;;0.30;;
64879;SDS011;51374;45.124;36.712;2022-07-01T06:30:05;0.50;;;0.50;;
64879;SDS011;51374;45.124;36.712;2022-07-01T06:32:32;0.98;;;0.40;;
64879;SDS011;51374;45.124;36.712;2022-07-01T06:34:58;0.20;;;0.20;;
64879;SDS011;51374;45.124;36.712;2022-07-01T06:37:24;0.40;;;0.40;;
64879;SDS011;51374;45.124;36.712;2022-07-01T06:39:50;0.25;;;0.25;;
64879;SDS011;51374;45.124;36.712;2022-07-01T06:42:16;0.70;;;0.70;;
64879;SDS011;51374;45.124;36.712;2022-07-01T06:44:42;0.22;;;0.22;;
64879;SDS011;51374;45.124;36.712;2022-07-01T06:47:08;0.30;;;0.30;;
64879;SDS011;51374;45.124;36.712;2022-07-01T06:49:35;3.35;;;0.68;;
64879;SDS011;51374;45.124;36.712;2022-07-01T06:52:01;0.50;;;0.50;;
64879;SDS011;51374;45.124;36.712;2022-07-01T06:54:27;0.32;;;0.32;;
64879;SDS011;51374;45.124;36.712;2022-07-01T06:56:53;0.52;;;0.40;;
64879;SDS011;51374;45.124;36.712;2022-07-01T06:59:20;0.55;;;0.55;;
64879;SDS011;51374;45.124;36.712;2022-07-01T07:01:46;0.32;;;0.32;;
64879;SDS011;51374;45.124;36.712;2022-07-01T07:04:12;0.20;;;0.20;;
64879;SDS011;51374;45.124;36.712;2022-07-01T07:06:38;0.52;;;0.40;;
64879;SDS011;51374;45.124;36.712;2022-07-01T07:09:04;3.42;;;0.35;;
64879;SDS011;51374;45.124;36.712;2022-07-01T07:11:30;0.43;;;0.43;;
64879;SDS011;51374;45.124;36.712;2022-07-01T07:13:56;0.32;;;0.30;;
64879;SDS011;51374;45.124;36.712;2022-07-01T07:16:21;0.30;;;0.30;;
64879;SDS011;51374;45.124;36.712;2022-07-01T07:18:48;2.25;;;0.38;;
64879;SDS011;51374;45.124;36.712;2022-07-01T07:21:15;0.50;;;0.30;;
64879;SDS011;51374;45.124;36.712;2022-07-01T07:23:41;0.43;;;0.40;;
64879;SDS011;51374;45.124;36.712;2022-07-01T07:26:08;0.30;;;0.30;;
64879;SDS011;51374;45.124;36.712;2022-07-01T07:28:34;0.88;;;0.45;;
64879;SDS011;51374;45.124;36.712;2022-07-01T07:31:00;1.55;;;0.47;;
64879;SDS011;51374;45.124;36.712;2022-07-01T07:33:26;0.40;;;0.38;;
64879;SDS011;51374;45.124;36.712;2022-07-01T07:35:52;0.40;;;0.40;;
64879;SDS011;51374;45.124;36.712;2022-07-01T07:38:19;0.35;;;0.35;;
64879;SDS011;51374;45.124;36.712;2022-07-01T07:40:45;0.22;;;0.22;;
64879;SDS011;51374;45.124;36.712;2022-07-01T07:43:11;2.80;;;0.57;;
64879;SDS011;51374;45.124;36.712;2022-07-01T07:45:37;0.77;;;0.60;;
64879;SDS011;51374;45.124;36.712;2022-07-01T07:48:03;0.60;;;0.60;;
64879;SDS011;51374;45.124;36.712;2022-07-01T07:50:31;1.25;;;0.50;;
64879;SDS011;51374;45.124;36.712;2022-07-01T07:52:57;1.27;;;0.88;;
64879;SDS011;51374;45.124;36.712;2022-07-01T07:55:24;0.55;;;0.55;;
64879;SDS011;51374;45.124;36.712;2022-07-01T07:57:50;0.82;;;0.52;;
64879;SDS011;51374;45.124;36.712;2022-07-01T08:00:16;0.50;;;0.50;;
64879;SDS011;51374;45.124;36.712;2022-07-01T08:02:42;0.93;;;0.90;;
64879;SDS011;51374;45.124;36.712;2022-07-01T08:05:09;0.52;;;0.52;;
64879;SDS011;51374;45.124;36.712;2022-07-01T08:07:39;0.60;;;0.40;;
64879;SDS011;51374;45.124;36.712;2022-07-01T08:10:07;0.75;;;0.75;;
64879;SDS011;51374;45.124;36.712;2022-07-01T08:12:35;1.30;;;1.20;;
64879;SDS011;51374;45.124;36.712;2022-07-01T08:15:01;0.63;;;0.60;;
64879;SDS011;51374;45.124;36.712;2022-07-01T08:17:28;0.47;;;0.47;;
64879;SDS011;51374;45.124;36.712;2022-07-01T08:19:54;1.00;;;0.75;;
64879;SDS011;51374;45.124;36.712;2022-07-01T08:22:20;1.42;;;0.80;;
64879;SDS011;51374;45.124;36.712;2022-07-01T08:24:45;0.90;;;0.90;;
64879;SDS011;51374;45.124;36.712;2022-07-01T08:27:11;1.55;;;0.93;;
64879;SDS011;51374;45.124;36.712;2022-07-01T08:29:38;0.40;;;0.40;;
64879;SDS011;51374;45.124;36.712;2022-07-01T08:32:05;0.55;;;0.55;;
64879;SDS011;51374;45.124;36.712;2022-07-01T08:34:32;1.15;;;0.65;;
64879;SDS011;51374;45.124;36.712;2022-07-01T08:36:59;1.23;;;0.70;;
64879;SDS011;51374;45.124;36.712;2022-07-01T08:39:26;1.27;;;0.80;;
64879;SDS011;51374;45.124;36.712;2022-07-01T08:41:51;1.38;;;1.27;;
64879;SDS011;51374;45.124;36.712;2022-07-01T08:44:17;0.63;;;0.63;;
64879;SDS011;51374;45.124;36.712;2022-07-01T08:46:44;2.20;;;1.00;;
64879;SDS011;51374;45.124;36.712;2022-07-01T08:49:10;1.15;;;0.68;;
64879;SDS011;51374;45.124;36.712;2022-07-01T08:51:37;0.70;;;0.70;;
64879;SDS011;51374;45.124;36.712;2022-07-01T08:54:03;0.73;;;0.73;;
64879;SDS011;51374;45.124;36.712;2022-07-01T08:56:29;0.80;;;0.80;;
64879;SDS011;51374;45.124;36.712;2022-07-01T08:59:09;1.63;;;1.27;;
64879;SDS011;51374;45.124;36.712;2022-07-01T09:01:36;4.53;;;1.60;;
64879;SDS011;51374;45.124;36.712;2022-07-01T09:04:19;0.80;;;0.80;;
64879;SDS011;51374;45.124;36.712;2022-07-01T09:06:46;1.20;;;1.08;;
64879;SDS011;51374;45.124;36.712;2022-07-01T09:09:14;1.55;;;1.02;;
64879;SDS011;51374;45.124;36.712;2022-07-01T09:11:45;2.38;;;1.40;;
64879;SDS011;51374;45.124;36.712;2022-07-01T09:14:13;1.98;;;1.40;;
64879;SDS011;51374;45.124;36.712;2022-07-01T09:16:41;1.15;;;0.95;;
64879;SDS011;51374;45.124;36.712;2022-07-01T09:19:12;1.25;;;0.90;;
64879;SDS011;51374;45.124;36.712;2022-07-01T09:21:39;0.65;;;0.65;;
64879;SDS011;51374;45.124;36.712;2022-07-01T09:24:21;1.65;;;1.30;;
64879;SDS011;51374;45.124;36.712;2022-07-01T09:26:54;3.90;;;1.15;;
64879;SDS011;51374;45.124;36.712;2022-07-01T09:29:29;1.95;;;1.20;;
64879;SDS011;51374;45.124;36.712;2022-07-01T09:31:57;2.23;;;1.03;;
64879;SDS011;51374;45.124;36.712;2022-07-01T09:34:24;0.85;;;0.70;;
64879;SDS011;51374;45.124;36.712;2022-07-01T09:36:56;0.77;;;0.73;;
64879;SDS011;51374;45.124;36.712;2022-07-01T09:39:23;0.80;;;0.63;;
64879;SDS011;51374;45.124;36.712;2022-07-01T09:41:49;4.05;;;1.10;;
64879;SDS011;51374;45.124;36.712;2022-07-01T09:44:19;3.67;;;1.10;;
64879;SDS011;51374;45.124;36.712;2022-07-01T09:46:55;1.38;;;1.05;;
64879;SDS011;51374;45.124;36.712;2022-07-01T09:49:23;0.95;;;0.68;;
64879;SDS011;51374;45.124;36.712;2022-07-01T09:51:50;4.07;;;1.40;;
64879;SDS011;51374;45.124;36.712;2022-07-01T09:54:17;0.80;;;0.80;;
64879;SDS011;51374;45.124;36.712;2022-07-01T09:56:43;1.15;;;1.08;;
64879;SDS011;51374;45.124;36.712;2022-07-01T09:59:09;2.35;;;1.83;;
64879;SDS011;51374;45.124;36.712;2022-07-01T10:01:36;2.35;;;1.27;;
64879;SDS011;51374;45.124;36.712;2022-07-01T10:04:05;1.38;;;1.27;;
64879;SDS011;51374;45.124;36.712;2022-07-01T10:09:26;1.50;;;1.08;;
64879;SDS011;51374;45.124;36.712;2022-07-01T10:12:28;1.15;;;1.10;;
64879;SDS011;51374;45.124;36.712;2022-07-01T10:14:55;1.40;;;1.30;;
64879;SDS011;51374;45.124;36.712;2022-07-01T10:19:55;1.50;;;1.30;;
64879;SDS011;51374;45.124;36.712;2022-07-01T10:22:27;1.35;;;1.17;;
64879;SDS011;51374;45.124;36.712;2022-07-01T10:24:55;1.47;;;1.10;;
64879;SDS011;51374;45.124;36.712;2022-07-01T10:27:22;2.92;;;1.35;;
64879;SDS011;51374;45.124;36.712;2022-07-01T10:32:47;2.03;;;0.73;;
64879;SDS011;51374;45.124;36.712;2022-07-01T10:35:14;1.95;;;0.80;;
64879;SDS011;51374;45.124;36.712;2022-07-01T10:37:56;1.35;;;1.10;;
64879;SDS011;51374;45.124;36.712;2022-07-01T10:40:41;0.68;;;0.68;;
64879;SDS011;51374;45.124;36.712;2022-07-01T10:43:16;1.42;;;1.33;;
64879;SDS011;51374;45.124;36.712;2022-07-01T10:45:56;1.30;;;1.20;;
64879;SDS011;51374;45.124;36.712;2022-07-01T10:48:23;0.98;;;0.82;;
64879;SDS011;51374;45.124;36.712;2022-07-01T10:50:50;0.90;;;0.90;;
64879;SDS011;51374;45.124;36.712;2022-07-01T10:53:17;1.63;;;0.75;;
64879;SDS011;51374;45.124;36.712;2022-07-01T10:55:47;1.38;;;1.08;;
64879;SDS011;51374;45.124;36.712;2022-07-01T10:58:15;3.70;;;0.90;;
64879;SDS011;51374;45.124;36.712;2022-07-01T11:00:49;0.50;;;0.50;;
64879;SDS011;51374;45.124;36.712;2022-07-01T11:03:18;1.05;;;1.02;;
64879;SDS011;51374;45.124;36.712;2022-07-01T11:05:46;0.50;;;0.50;;
64879;SDS011;51374;45.124;36.712;2022-07-01T11:08:14;0.57;;;0.57;;
64879;SDS011;51374;45.124;36.712;2022-07-01T11:10:40;1.60;;;0.80;;
64879;SDS011;51374;45.124;36.712;2022-07-01T11:13:07;1.00;;;0.88;;
64879;SDS011;51374;45.124;36.712;2022-07-01T11:15:38;0.75;;;0.75;;
64879;SDS011;51374;45.124;36.712;2022-07-01T11:18:04;0.88;;;0.60;;
64879;SDS011;51374;45.124;36.712;2022-07-01T11:20:31;0.45;;;0.40;;
64879;SDS011;51374;45.124;36.712;2022-07-01T11:22:58;0.70;;;0.60;;
64879;SDS011;51374;45.124;36.712;2022-07-01T11:25:24;0.80;;;0.80;;
64879;SDS011;51374;45.124;36.712;2022-07-01T11:27:52;1.00;;;0.88;;
64879;SDS011;51374;45.124;36.712;2022-07-01T11:30:19;0.73;;;0.73;;
64879;SDS011;51374;45.124;36.712;2022-07-01T11:32:46;3.55;;;1.00;;
64879;SDS011;51374;45.124;36.712;2022-07-01T11:38:07;0.82;;;0.82;;
64879;SDS011;51374;45.124;36.712;2022-07-01T11:41:00;0.60;;;0.60;;
64879;SDS011;51374;45.124;36.712;2022-07-01T11:43:29;8.48;;;1.20;;
64879;SDS011;51374;45.124;36.712;2022-07-01T11:46:00;1.02;;;0.93;;
64879;SDS011;51374;45.124;36.712;2022-07-01T11:48:28;0.40;;;0.40;;
64879;SDS011;51374;45.124;36.712;2022-07-01T11:50:55;2.22;;;1.13;;
64879;SDS011;51374;45.124;36.712;2022-07-01T11:53:21;1.23;;;1.00;;
64879;SDS011;51374;45.124;36.712;2022-07-01T11:55:47;1.63;;;1.10;;
64879;SDS011;51374;45.124;36.712;2022-07-01T11:58:13;0.38;;;0.38;;
64879;SDS011;51374;45.124;36.712;2022-07-01T12:00:39;1.90;;;0.95;;
64879;SDS011;51374;45.124;36.712;2022-07-01T12:03:05;1.05;;;0.98;;
64879;SDS011;51374;45.124;36.712;2022-07-01T12:05:32;0.50;;;0.50;;
64879;SDS011;51374;45.124;36.712;2022-07-01T12:08:00;1.42;;;1.33;;
64879;SDS011;51374;45.124;36.712;2022-07-01T12:10:26;2.17;;;1.33;;
64879;SDS011;51374;45.124;36.712;2022-07-01T12:12:54;1.20;;;0.90;;
64879;SDS011;51374;45.124;36.712;2022-07-01T12:15:20;1.92;;;1.38;;
64879;SDS011;51374;45.124;36.712;2022-07-01T12:17:46;4.82;;;1.98;;
64879;SDS011;51374;45.124;36.712;2022-07-01T12:20:12;1.02;;;1.02;;
64879;SDS011;51374;45.124;36.712;2022-07-01T12:22:38;2.10;;;1.58;;
64879;SDS011;51374;45.124;36.712;2022-07-01T12:25:08;2.33;;;1.83;;
64879;SDS011;51374;45.124;36.712;2022-07-01T12:27:36;2.67;;;1.83;;
64879;SDS011;51374;45.124;36.712;2022-07-01T12:30:06;1.50;;;1.27;;
64879;SDS011;51374;45.124;36.712;2022-07-01T12:32:38;1.23;;;1.05;;
64879;SDS011;51374;45.124;36.712;2022-07-01T12:35:05;1.88;;;1.40;;
64879;SDS011;51374;45.124;36.712;2022-07-01T12:37:55;2.25;;;1.48;;
64879;SDS011;51374;45.124;36.712;2022-07-01T12:40:22;1.95;;;1.08;;
64879;SDS011;51374;45.124;36.712;2022-07-01T12:42:50;1.80;;;1.25;;
64879;SDS011;51374;45.124;36.712;2022-07-01T12:45:20;1.83;;;1.65;;
64879;SDS011;51374;45.124;36.712;2022-07-01T12:47:49;3.08;;;1.67;;
64879;SDS011;51374;45.124;36.712;2022-07-01T12:50:23;1.88;;;1.33;;
64879;SDS011;51374;45.124;36.712;2022-07-01T12:55:32;3.33;;;1.50;;
64879;SDS011;51374;45.124;36.712;2022-07-01T12:58:07;1.05;;;0.95;;
64879;SDS011;51374;45.124;36.712;2022-07-01T13:00:38;1.77;;;1.10;;
64879;SDS011;51374;45.124;36.712;2022-07-01T13:03:05;2.42;;;1.88;;
64879;SDS011;51374;45.124;36.712;2022-07-01T13:05:33;2.63;;;1.40;;
64879;SDS011;51374;45.124;36.712;2022-07-01T13:08:00;5.18;;;1.67;;
64879;SDS011;51374;45.124;36.712;2022-07-01T13:10:27;1.38;;;1.23;;
64879;SDS011;51374;45.124;36.712;2022-07-01T13:12:53;0.63;;;0.63;;
64879;SDS011;51374;45.124;36.712;2022-07-01T13:15:19;1.65;;;1.05;;
64879;SDS011;51374;45.124;36.712;2022-07-01T13:17:46;1.30;;;1.20;;
64879;SDS011;51374;45.124;36.712;2022-07-01T13:20:13;1.40;;;1.10;;
64879;SDS011;51374;45.124;36.712;2022-07-01T13:22:40;0.40;;;0.40;;
64879;SDS011;51374;45.124;36.712;2022-07-01T13:25:07;1.75;;;1.65;;
64879;SDS011;51374;45.124;36.712;2022-07-01T13:27:34;1.92;;;1.30;;
64879;SDS011;51374;45.124;36.712;2022-07-01T13:30:00;3.17;;;1.50;;
64879;SDS011;51374;45.124;36.712;2022-07-01T13:32:28;0.80;;;0.80;;
64879;SDS011;51374;45.124;36.712;2022-07-01T13:34:54;1.58;;;0.90;;
64879;SDS011;51374;45.124;36.712;2022-07-01T13:37:21;2.08;;;1.48;;
64879;SDS011;51374;45.124;36.712;2022-07-01T13:39:47;1.58;;;1.23;;
64879;SDS011;51374;45.124;36.712;2022-07-01T13:42:13;1.90;;;1.52;;
64879;SDS011;51374;45.124;36.712;2022-07-01T13:44:39;2.40;;;1.23;;
64879;SDS011;51374;45.124;36.712;2022-07-01T13:47:05;1.13;;;0.85;;
64879;SDS011;51374;45.124;36.712;2022-07-01T13:49:35;2.63;;;1.63;;
64879;SDS011;51374;45.124;36.712;2022-07-01T13:52:01;1.50;;;1.40;;
64879;SDS011;51374;45.124;36.712;2022-07-01T13:54:28;1.35;;;1.13;;
64879;SDS011;51374;45.124;36.712;2022-07-01T13:56:53;1.52;;;1.17;;
64879;SDS011;51374;45.124;36.712;2022-07-01T13:59:19;1.38;;;1.05;;
64879;SDS011;51374;45.124;36.712;2022-07-01T14:01:45;1.35;;;1.25;;
64879;SDS011;51374;45.124;36.712;2022-07-01T14:04:12;3.53;;;1.58;;
64879;SDS011;51374;45.124;36.712;2022-07-01T14:06:38;2.92;;;1.80;;
64879;SDS011;51374;45.124;36.712;2022-07-01T14:09:04;4.15;;;2.03;;
64879;SDS011;51374;45.124;36.712;2022-07-01T14:11:30;1.60;;;1.30;;
64879;SDS011;51374;45.124;36.712;2022-07-01T14:13:56;2.15;;;1.60;;
64879;SDS011;51374;45.124;36.712;2022-07-01T14:16:22;8.45;;;2.10;;
64879;SDS011;51374;45.124;36.712;2022-07-01T14:18:48;2.45;;;1.70;;
64879;SDS011;51374;45.124;36.712;2022-07-01T14:21:17;3.95;;;1.77;;
64879;SDS011;51374;45.124;36.712;2022-07-01T14:23:43;5.47;;;2.13;;
64879;SDS011;51374;45.124;36.712;2022-07-01T14:26:09;2.05;;;1.77;;
64879;SDS011;51374;45.124;36.712;2022-07-01T14:28:35;5.25;;;2.17;;
64879;SDS011;51374;45.124;36.712;2022-07-01T14:31:01;3.50;;;2.88;;
64879;SDS011;51374;45.124;36.712;2022-07-01T14:33:27;6.43;;;3.58;;
64879;SDS011;51374;45.124;36.712;2022-07-01T14:35:53;8.07;;;3.78;;
64879;SDS011;51374;45.124;36.712;2022-07-01T14:38:19;5.80;;;3.58;;
64879;SDS011;51374;45.124;36.712;2022-07-01T14:40:45;2.85;;;1.85;;
64879;SDS011;51374;45.124;36.712;2022-07-01T14:43:11;7.82;;;3.17;;
64879;SDS011;51374;45.124;36.712;2022-07-01T14:45:37;8.93;;;1.67;;
64879;SDS011;51374;45.124;36.712;2022-07-01T14:48:03;4.95;;;2.80;;